Time;durP1;ratioP1;P1;durP2;ratioP2;P2;SDS_P1;SDS_P2;PMS_P1;PMS_P2;Temp;Humidity;BMP_temperature;BMP_pressure;BME280_temperature;BME280_humidity;BME280_pressure;Samples;Min_cycle;Max_cycle;Signal;HPM_P1;HPM_P2
2023/12/30 00:04:33;;;;;;;18.30;3.23;;;;;7.90;100602.00;;;;9858884;29;20729;-83
2023/12/30 00:09:34;;;;;;;19.33;3.13;;;;;7.90;100601.00;;;;9835102;29;20261;-84
2023/12/30 00:14:36;;;;;;;12.53;3.17;;;;;8.00;100609.00;;;;9858475;29;20365;-83
2023/12/30 00:19:42;;;;;;;14.93;2.70;;;;;8.10;100612.00;;;;9846814;29;20695;-83
2023/12/30 00:24:43;;;;;;;22.20;2.80;;;;;8.10;100621.00;;;;9859413;29;20242;-84
2023/12/30 00:29:44;;;;;;;19.53;2.93;;;;;8.10;100626.00;;;;9859558;29;20246;-84
2023/12/30 00:34:46;;;;;;;13.47;3.27;;;;;8.00;100621.00;;;;9856873;29;20262;-84
2023/12/30 00:39:47;;;;;;;17.90;3.20;;;;;7.90;100624.00;;;;9874174;29;20228;-83
2023/12/30 00:44:48;;;;;;;20.60;3.37;;;;;7.90;100619.00;;;;9869113;29;20249;-83
2023/12/30 00:49:50;;;;;;;14.80;2.43;;;;;7.90;100622.00;;;;9872594;29;20584;-85
2023/12/30 00:54:51;;;;;;;12.50;2.67;;;;;7.90;100632.00;;;;9876848;29;20945;-86
2023/12/30 00:59:52;;;;;;;11.37;2.00;;;;;7.80;100625.00;;;;9867553;29;20580;-85
2023/12/30 01:04:53;;;;;;;15.37;3.00;;;;;7.70;100628.00;;;;9864099;29;20232;-85
2023/12/30 01:09:54;;;;;;;16.03;2.53;;;;;7.70;100627.00;;;;9869073;29;20292;-85
2023/12/30 01:14:56;;;;;;;15.90;2.63;;;;;7.70;100634.00;;;;9847533;29;20231;-87
2023/12/30 01:19:57;;;;;;;11.63;2.87;;;;;7.60;100651.00;;;;9875226;29;20227;-84
2023/12/30 01:24:59;;;;;;;16.10;3.40;;;;;7.60;100648.00;;;;9875657;29;20647;-87
2023/12/30 01:30:01;;;;;;;15.13;2.87;;;;;7.60;100647.00;;;;9847443;29;20231;-87
2023/12/30 01:35:03;;;;;;;13.57;2.53;;;;;7.60;100649.00;;;;9867475;29;20254;-85
2023/12/30 01:40:05;;;;;;;14.30;2.07;;;;;7.70;100656.00;;;;9862065;29;20232;-87
2023/12/30 01:45:07;;;;;;;23.20;2.90;;;;;7.80;100664.00;;;;9899129;29;20292;-87
2023/12/30 01:50:09;;;;;;;14.50;3.90;;;;;8.00;100673.00;;;;9870634;29;20283;-85
2023/12/30 01:55:11;;;;;;;27.90;3.47;;;;;8.00;100676.00;;;;9885206;29;20247;-86
2023/12/30 02:00:19;;;;;;;17.10;3.50;;;;;8.00;100686.00;;;;9850981;29;20247;-86
2023/12/30 02:05:21;;;;;;;20.40;2.83;;;;;8.00;100685.00;;;;9871460;29;20262;-77
2023/12/30 02:10:22;;;;;;;15.63;2.83;;;;;7.90;100687.00;;;;9848624;29;20232;-77
2023/12/30 02:15:27;;;;;;;20.80;4.00;;;;;7.90;100699.00;;;;9851720;29;20246;-77
2023/12/30 02:20:30;;;;;;;18.47;3.60;;;;;7.90;100702.00;;;;9852244;29;20812;-77
2023/12/30 02:25:31;;;;;;;19.53;4.10;;;;;7.80;100712.00;;;;9853699;29;20298;-77
2023/12/30 02:30:32;;;;;;;22.27;3.73;;;;;7.70;100715.00;;;;9851654;29;20230;-77
2023/12/30 02:35:34;;;;;;;14.10;2.37;;;;;7.60;100711.00;;;;9847537;29;20231;-79
2023/12/30 02:40:35;;;;;;;17.93;3.33;;;;;7.50;100700.00;;;;9859507;29;20243;-77
2023/12/30 02:45:36;;;;;;;15.53;3.87;;;;;7.50;100708.00;;;;9856616;29;20244;-78
2023/12/30 02:50:37;;;;;;;22.37;3.23;;;;;7.50;100697.00;;;;9868017;29;20235;-77
2023/12/30 02:55:38;;;;;;;18.10;2.83;;;;;7.50;100712.00;;;;9855023;29;20239;-79
2023/12/30 03:00:40;;;;;;;18.93;3.83;;;;;7.60;100716.00;;;;9858291;29;20289;-79
2023/12/30 03:05:41;;;;;;;13.97;3.40;;;;;7.60;100726.00;;;;9870585;29;20325;-77
2023/12/30 03:10:42;;;;;;;15.70;3.10;;;;;7.60;100732.00;;;;9874262;29;21036;-77
2023/12/30 03:15:44;;;;;;;17.63;2.73;;;;;7.60;100728.00;;;;9846699;29;20241;-78
2023/12/30 03:20:45;;;;;;;16.20;3.27;;;;;7.60;100725.00;;;;9859571;29;20231;-79
2023/12/30 03:25:46;;;;;;;15.33;2.83;;;;;7.70;100729.00;;;;9840952;29;20604;-76
2023/12/30 03:30:47;;;;;;;20.90;2.73;;;;;7.80;100729.00;;;;9872591;29;20228;-86
2023/12/30 03:35:48;;;;;;;16.97;3.30;;;;;7.80;100727.00;;;;9874772;29;20231;-87
2023/12/30 03:40:50;;;;;;;12.53;2.93;;;;;7.80;100734.00;;;;9876433;29;20369;-87
2023/12/30 03:45:51;;;;;;;19.63;3.20;;;;;7.70;100731.00;;;;9853573;29;20235;-88
2023/12/30 03:50:52;;;;;;;15.27;2.63;;;;;7.70;100718.00;;;;9851651;29;20265;-87
2023/12/30 03:55:53;;;;;;;17.57;2.70;;;;;7.60;100726.00;;;;9846224;30;20239;-87
2023/12/30 04:00:54;;;;;;;17.00;3.00;;;;;7.50;100727.00;;;;9845044;29;20334;-86
2023/12/30 04:05:56;;;;;;;18.30;3.17;;;;;7.60;100725.00;;;;9853399;29;20243;-86
2023/12/30 04:10:58;;;;;;;12.63;3.50;;;;;7.60;100733.00;;;;9883286;29;20242;-86
2023/12/30 04:15:59;;;;;;;14.33;3.40;;;;;7.70;100721.00;;;;9858038;29;20227;-86
2023/12/30 04:21:01;;;;;;;16.23;3.60;;;;;7.80;100730.00;;;;9856875;29;20278;-85
2023/12/30 04:26:02;;;;;;;13.70;3.30;;;;;7.80;100714.00;;;;9854445;29;20232;-86
2023/12/30 04:31:03;;;;;;;16.47;3.50;;;;;7.80;100724.00;;;;9882285;29;20243;-86
2023/12/30 04:36:05;;;;;;;18.13;3.77;;;;;7.60;100727.00;;;;9867172;29;20999;-86
2023/12/30 04:41:07;;;;;;;19.00;3.80;;;;;7.50;100726.00;;;;9862857;29;20246;-79
2023/12/30 04:46:09;;;;;;;16.07;3.30;;;;;7.40;100729.00;;;;9855171;29;20248;-79
2023/12/30 04:51:11;;;;;;;13.07;3.23;;;;;7.30;100736.00;;;;9851533;29;20917;-79
2023/12/30 04:56:16;;;;;;;21.53;4.00;;;;;7.20;100739.00;;;;9859912;29;20298;-79
2023/12/30 05:01:18;;;;;;;17.90;3.63;;;;;7.10;100745.00;;;;9853204;29;20243;-79
2023/12/30 05:06:21;;;;;;;20.60;3.10;;;;;7.00;100747.00;;;;9856587;29;20345;-79
2023/12/30 05:11:25;;;;;;;11.43;2.50;;;;;7.00;100744.00;;;;9854202;29;20236;-79
2023/12/30 05:16:26;;;;;;;16.23;3.20;;;;;7.00;100752.00;;;;9855316;29;20314;-79
2023/12/30 05:21:27;;;;;;;17.83;2.80;;;;;7.00;100768.00;;;;9837982;29;20234;-79
2023/12/30 05:26:28;;;;;;;11.87;2.77;;;;;6.90;100761.00;;;;9853976;29;20365;-79
2023/12/30 05:31:30;;;;;;;16.97;4.97;;;;;6.90;100754.00;;;;9838749;29;20235;-79
2023/12/30 05:36:31;;;;;;;19.37;4.20;;;;;6.90;100756.00;;;;9864851;29;20235;-79
2023/12/30 05:41:32;;;;;;;13.60;3.23;;;;;6.90;100759.00;;;;9831073;30;20232;-80
2023/12/30 05:46:33;;;;;;;18.60;3.53;;;;;7.00;100752.00;;;;9836411;29;20230;-79
2023/12/30 05:51:40;;;;;;;14.30;3.60;;;;;7.10;100753.00;;;;9853164;29;20259;-76
2023/12/30 05:56:41;;;;;;;25.23;4.03;;;;;7.20;100753.00;;;;9856784;29;20246;-78
2023/12/30 06:01:45;;;;;;;20.87;3.30;;;;;7.20;100757.00;;;;9855330;29;20235;-77
2023/12/30 06:06:46;;;;;;;21.00;3.80;;;;;7.20;100762.00;;;;9860452;29;20239;-78
2023/12/30 06:11:48;;;;;;;12.20;4.10;;;;;7.30;100770.00;;;;9861684;29;20239;-77
2023/12/30 06:16:49;;;;;;;19.50;4.07;;;;;7.30;100770.00;;;;9842103;29;21084;-78
2023/12/30 06:21:50;;;;;;;21.00;4.30;;;;;7.30;100768.00;;;;9840655;29;20318;-76
2023/12/30 06:26:52;;;;;;;17.43;4.27;;;;;7.40;100765.00;;;;9842382;29;20235;-77
2023/12/30 06:31:53;;;;;;;19.17;3.73;;;;;7.40;100778.00;;;;9842212;29;20255;-77
2023/12/30 06:36:54;;;;;;;17.67;4.43;;;;;7.30;100761.00;;;;9864242;29;20235;-77
2023/12/30 06:41:59;;;;;;;21.07;4.00;;;;;7.30;100778.00;;;;9843033;29;20270;-76
2023/12/30 06:47:05;;;;;;;17.77;4.70;;;;;7.30;100780.00;;;;9873690;29;20645;-78
2023/12/30 06:52:06;;;;;;;22.13;4.10;;;;;7.40;100790.00;;;;9851428;29;20258;-76
2023/12/30 06:57:07;;;;;;;23.37;4.07;;;;;7.40;100785.00;;;;9843773;29;20269;-76
2023/12/30 07:02:09;;;;;;;12.33;4.43;;;;;7.50;100787.00;;;;9851204;29;20263;-77
2023/12/30 07:07:10;;;;;;;13.87;4.53;;;;;7.50;100794.00;;;;9857181;29;20247;-78
2023/12/30 07:12:12;;;;;;;22.90;4.67;;;;;7.50;100784.00;;;;9848735;29;20231;-79
2023/12/30 07:17:15;;;;;;;17.90;5.53;;;;;7.40;100792.00;;;;9861570;29;21455;-80
2023/12/30 07:22:19;;;;;;;19.83;5.03;;;;;7.30;100788.00;;;;9858450;29;20231;-80
2023/12/30 07:27:20;;;;;;;21.00;5.50;;;;;7.30;100797.00;;;;9852481;29;20244;-78
2023/12/30 07:32:21;;;;;;;27.83;5.13;;;;;7.20;100797.00;;;;9867966;29;20245;-78
2023/12/30 07:37:22;;;;;;;18.97;5.13;;;;;7.30;100802.00;;;;9879985;29;20326;-78
2023/12/30 07:42:23;;;;;;;17.13;5.40;;;;;7.40;100812.00;;;;9862485;29;20675;-78
2023/12/30 07:47:27;;;;;;;17.10;5.67;;;;;7.40;100804.00;;;;9843347;29;20235;-78
2023/12/30 07:52:29;;;;;;;20.53;5.80;;;;;7.40;100814.00;;;;9870200;29;20388;-78
2023/12/30 07:57:30;;;;;;;19.80;5.73;;;;;7.40;100801.00;;;;9847106;29;20232;-78
2023/12/30 08:02:31;;;;;;;19.30;7.23;;;;;7.50;100822.00;;;;9853652;29;20339;-80
2023/12/30 08:07:33;;;;;;;19.47;4.80;;;;;7.60;100832.00;;;;9844167;29;20331;-78
2023/12/30 08:12:36;;;;;;;16.73;5.23;;;;;7.70;100828.00;;;;9869212;29;20234;-77
2023/12/30 08:17:38;;;;;;;23.13;6.20;;;;;7.80;100847.00;;;;9852175;29;20237;-76
2023/12/30 08:22:39;;;;;;;18.03;5.47;;;;;7.90;100835.00;;;;9839839;29;20274;-76
2023/12/30 08:27:40;;;;;;;19.80;4.60;;;;;7.90;100817.00;;;;9854315;29;20806;-78
2023/12/30 08:32:41;;;;;;;15.57;5.13;;;;;8.00;100821.00;;;;9854641;29;20319;-76
2023/12/30 08:37:42;;;;;;;16.73;4.37;;;;;8.10;100823.00;;;;9856806;29;20261;-76
2023/12/30 08:42:44;;;;;;;20.50;4.67;;;;;8.10;100813.00;;;;9844047;30;20822;-76
2023/12/30 08:47:47;;;;;;;20.10;6.37;;;;;8.20;100809.00;;;;9834632;29;20248;-79
2023/12/30 08:52:48;;;;;;;21.93;5.00;;;;;8.20;100815.00;;;;9850380;29;20242;-76
2023/12/30 08:57:49;;;;;;;19.03;4.50;;;;;8.40;100822.00;;;;9837021;29;20266;-77
2023/12/30 09:02:55;;;;;;;17.83;3.70;;;;;8.50;100820.00;;;;9865031;29;20231;-77
2023/12/30 09:07:56;;;;;;;22.63;4.50;;;;;8.70;100826.00;;;;9865848;29;20232;-76
2023/12/30 09:12:58;;;;;;;24.27;5.20;;;;;8.70;100820.00;;;;9858418;29;20239;-81
2023/12/30 09:17:59;;;;;;;12.97;4.43;;;;;8.80;100823.00;;;;9863847;29;20319;-77
2023/12/30 09:23:02;;;;;;;19.10;4.40;;;;;8.90;100830.00;;;;9882438;29;20255;-82
2023/12/30 09:28:04;;;;;;;16.50;4.77;;;;;9.00;100834.00;;;;9857271;29;20231;-82
2023/12/30 09:33:05;;;;;;;15.33;5.33;;;;;9.10;100843.00;;;;9855177;29;20370;-82
2023/12/30 09:38:10;;;;;;;17.77;4.33;;;;;9.20;100844.00;;;;9853656;29;20314;-83
2023/12/30 09:43:14;;;;;;;14.87;4.40;;;;;9.50;100855.00;;;;9846607;29;20698;-82
2023/12/30 09:48:18;;;;;;;21.80;4.10;;;;;9.90;100852.00;;;;9853434;29;20308;-83
2023/12/30 09:53:22;;;;;;;18.67;4.17;;;;;10.00;100858.00;;;;9848326;29;20239;-82
2023/12/30 09:58:23;;;;;;;11.73;4.20;;;;;10.10;100864.00;;;;9852406;29;20259;-82
2023/12/30 10:03:25;;;;;;;14.50;3.60;;;;;10.30;100870.00;;;;9835056;29;20242;-83
2023/12/30 10:08:29;;;;;;;17.90;5.07;;;;;10.20;100878.00;;;;9852712;29;20243;-82
2023/12/30 10:13:31;;;;;;;13.90;3.83;;;;;10.00;100880.00;;;;9867632;29;20231;-82
2023/12/30 10:18:32;;;;;;;18.13;3.73;;;;;9.80;100869.00;;;;9841817;29;20242;-81
2023/12/30 10:23:34;;;;;;;15.60;3.73;;;;;9.70;100871.00;;;;9853202;29;20243;-83
2023/12/30 10:28:36;;;;;;;17.47;4.50;;;;;9.80;100857.00;;;;9854803;29;20258;-82
2023/12/30 10:33:40;;;;;;;14.50;4.57;;;;;10.40;100846.00;;;;9847380;29;20308;-79
2023/12/30 10:38:43;;;;;;;14.17;3.67;;;;;10.70;100837.00;;;;9867430;29;20231;-80
2023/12/30 10:43:45;;;;;;;13.93;4.40;;;;;11.00;100833.00;;;;9849908;29;20373;-80
2023/12/30 10:48:55;;;;;;;17.77;3.70;;;;;10.80;100829.00;;;;9851593;29;20263;-81
2023/12/30 10:54:07;;;;;;;18.10;3.63;;;;;10.60;100814.00;;;;9852190;29;20926;-81
2023/12/30 10:59:12;;;;;;;18.43;3.37;;;;;10.70;100806.00;;;;9878534;29;20283;-81
2023/12/30 11:04:14;;;;;;;14.93;3.43;;;;;10.70;100796.00;;;;9853734;29;20274;-80
2023/12/30 11:09:18;;;;;;;12.67;2.77;;;;;11.10;100798.00;;;;9847087;29;20240;-81
2023/12/30 11:14:20;;;;;;;12.27;3.40;;;;;11.10;100797.00;;;;9834612;29;20235;-80
2023/12/30 11:19:32;;;;;;;13.03;2.87;;;;;11.20;100810.00;;;;9849151;29;20795;-80
2023/12/30 11:24:34;;;;;;;9.77;2.47;;;;;10.90;100791.00;;;;9867317;29;20247;-81
2023/12/30 11:29:35;;;;;;;12.43;4.00;;;;;11.00;100777.00;;;;9861112;29;20318;-80
2023/12/30 11:34:37;;;;;;;11.00;2.63;;;;;11.00;100774.00;;;;9844593;29;20236;-80
2023/12/30 11:39:40;;;;;;;10.00;2.37;;;;;10.90;100760.00;;;;9838849;29;20239;-81
2023/12/30 11:44:42;;;;;;;9.93;2.73;;;;;10.70;100753.00;;;;9853062;29;20760;-82
2023/12/30 11:49:43;;;;;;;8.83;2.93;;;;;10.60;100733.00;;;;9860705;29;20223;-82
2023/12/30 11:54:46;;;;;;;10.03;2.87;;;;;10.80;100730.00;;;;9846586;29;20226;-81
2023/12/30 11:59:47;;;;;;;10.77;3.07;;;;;10.90;100725.00;;;;9854454;29;20232;-82
2023/12/30 12:04:48;;;;;;;10.43;2.80;;;;;11.40;100730.00;;;;9841056;29;20232;-82
2023/12/30 12:09:49;;;;;;;8.30;2.43;;;;;11.00;100715.00;;;;9839716;29;20231;-81
2023/12/30 12:14:52;;;;;;;12.13;2.83;;;;;11.10;100712.00;;;;9858494;29;20240;-81
2023/12/30 12:19:53;;;;;;;6.53;2.20;;;;;11.70;100706.00;;;;9842200;29;20234;-81
2023/12/30 12:24:55;;;;;;;10.97;2.80;;;;;11.90;100695.00;;;;9859302;29;20242;-82
2023/12/30 12:29:56;;;;;;;9.80;2.90;;;;;11.80;100697.00;;;;9843064;29;20268;-82
2023/12/30 12:34:57;;;;;;;9.87;2.70;;;;;11.20;100681.00;;;;9854937;29;20685;-81
2023/12/30 12:39:59;;;;;;;7.17;1.90;;;;;11.00;100673.00;;;;9858811;29;20243;-81
2023/12/30 12:45:00;;;;;;;9.27;2.23;;;;;11.10;100669.00;;;;9848945;29;20286;-81
2023/12/30 12:50:04;;;;;;;7.50;1.80;;;;;10.70;100650.00;;;;9853867;29;20236;-88
2023/12/30 12:55:06;;;;;;;9.43;2.63;;;;;10.90;100653.00;;;;9884172;29;20236;-86
2023/12/30 13:00:08;;;;;;;7.13;1.70;;;;;11.20;100642.00;;;;9845379;29;20323;-87
2023/12/30 13:05:10;;;;;;;7.20;2.30;;;;;11.00;100648.00;;;;9857032;29;20275;-86
2023/12/30 13:15:24;;;;;;;5.47;2.23;;;;;11.00;100635.00;;;;9857772;29;20232;-88
2023/12/30 13:20:27;;;;;;;7.23;2.07;;;;;11.50;100636.00;;;;9845654;29;20237;-87
2023/12/30 13:25:29;;;;;;;7.00;1.53;;;;;11.50;100632.00;;;;9841243;29;20231;-85
2023/12/30 13:30:32;;;;;;;6.53;2.27;;;;;11.40;100628.00;;;;9840181;29;20262;-85
2023/12/30 13:35:37;;;;;;;10.47;2.07;;;;;11.30;100618.00;;;;9838204;29;20243;-88
2023/12/30 13:40:40;;;;;;;6.07;1.60;;;;;11.20;100608.00;;;;9849458;29;20239;-87
2023/12/30 13:45:43;;;;;;;8.97;1.83;;;;;11.10;100577.00;;;;9839451;29;20235;-87
2023/12/30 13:50:52;;;;;;;5.27;1.20;;;;;11.00;100568.00;;;;9857638;29;20277;-86
2023/12/30 13:56:03;;;;;;;6.90;1.60;;;;;10.90;100570.00;;;;9832154;29;20236;-86
2023/12/30 14:01:05;;;;;;;5.53;1.40;;;;;10.90;100570.00;;;;9835474;29;20913;-79
2023/12/30 14:06:08;;;;;;;8.47;1.70;;;;;10.90;100556.00;;;;9847654;29;20332;-80
2023/12/30 14:11:21;;;;;;;7.80;1.73;;;;;10.80;100553.00;;;;9849113;29;20251;-78
2023/12/30 14:16:22;;;;;;;2.87;1.00;;;;;10.70;100536.00;;;;9842208;29;20747;-80
2023/12/30 14:21:23;;;;;;;7.57;1.60;;;;;10.60;100524.00;;;;9833335;29;20317;-80
2023/12/30 14:26:25;;;;;;;9.33;1.63;;;;;10.60;100538.00;;;;9842185;29;20242;-80
2023/12/30 14:31:26;;;;;;;7.27;1.23;;;;;10.50;100539.00;;;;9862898;29;20235;-79
2023/12/30 14:36:27;;;;;;;10.53;2.00;;;;;10.40;100541.00;;;;9851077;29;20231;-79
2023/12/30 14:41:29;;;;;;;5.67;1.50;;;;;10.30;100530.00;;;;9847441;30;20242;-78
2023/12/30 14:46:30;;;;;;;1.90;0.90;;;;;10.20;100525.00;;;;9863229;29;20688;-79
2023/12/30 14:51:32;;;;;;;7.10;1.60;;;;;10.20;100526.00;;;;9858937;29;20231;-78
2023/12/30 14:56:34;;;;;;;7.60;1.70;;;;;10.20;100519.00;;;;9857740;29;20238;-79
2023/12/30 15:01:35;;;;;;;5.40;1.17;;;;;10.10;100509.00;;;;9847311;29;20235;-79
2023/12/30 15:06:36;;;;;;;2.77;1.00;;;;;10.10;100514.00;;;;9861833;29;20239;-79
2023/12/30 15:11:37;;;;;;;6.67;0.83;;;;;10.10;100504.00;;;;9853958;29;20231;-81
2023/12/30 15:16:39;;;;;;;8.57;1.73;;;;;10.10;100510.00;;;;9847677;29;20238;-81
2023/12/30 15:21:40;;;;;;;5.63;1.10;;;;;10.00;100505.00;;;;9854408;29;20262;-82
2023/12/30 15:26:41;;;;;;;3.37;1.37;;;;;10.00;100487.00;;;;9866719;29;20322;-81
2023/12/30 15:31:44;;;;;;;2.00;1.00;;;;;10.00;100483.00;;;;9866496;29;20241;-81
2023/12/30 15:36:45;;;;;;;3.00;1.37;;;;;10.00;100471.00;;;;9873665;29;20322;-81
2023/12/30 15:41:47;;;;;;;5.73;1.10;;;;;9.90;100485.00;;;;9854422;29;20290;-80
2023/12/30 15:46:50;;;;;;;4.13;1.23;;;;;9.90;100468.00;;;;9840830;29;20259;-81
2023/12/30 15:51:51;;;;;;;6.17;1.40;;;;;9.90;100467.00;;;;9868916;29;20259;-81
2023/12/30 15:56:53;;;;;;;5.27;1.27;;;;;9.90;100452.00;;;;9871110;29;20918;-82
2023/12/30 16:01:55;;;;;;;3.20;1.10;;;;;10.00;100443.00;;;;9855016;29;20314;-80
2023/12/30 16:06:56;;;;;;;3.77;1.20;;;;;10.00;100452.00;;;;9841335;29;20239;-81
2023/12/30 16:11:57;;;;;;;3.50;1.17;;;;;10.00;100452.00;;;;9838934;29;20855;-81
2023/12/30 16:16:59;;;;;;;3.63;1.43;;;;;10.00;100446.00;;;;9862512;29;20273;-81
2023/12/30 16:22:01;;;;;;;3.70;1.03;;;;;10.00;100442.00;;;;9860045;29;20287;-80
2023/12/30 16:27:03;;;;;;;4.90;1.43;;;;;10.00;100443.00;;;;9843560;29;20887;-82
2023/12/30 16:32:04;;;;;;;4.47;1.00;;;;;10.00;100452.00;;;;9856111;30;20235;-80
2023/12/30 16:37:06;;;;;;;3.30;1.30;;;;;10.00;100454.00;;;;9850380;29;20232;-80
2023/12/30 16:42:07;;;;;;;5.33;1.70;;;;;10.00;100454.00;;;;9838497;29;20232;-81
2023/12/30 16:47:08;;;;;;;2.97;1.20;;;;;10.00;100460.00;;;;9854045;29;20330;-80
2023/12/30 16:52:09;;;;;;;3.87;1.17;;;;;10.00;100441.00;;;;9847752;29;20334;-80
2023/12/30 16:57:11;;;;;;;2.07;1.37;;;;;10.00;100440.00;;;;9866180;29;20587;-81
2023/12/30 17:02:13;;;;;;;7.30;1.40;;;;;10.00;100432.00;;;;9859149;29;20243;-81
2023/12/30 17:07:14;;;;;;;3.90;1.33;;;;;10.00;100432.00;;;;9853898;29;20240;-81
2023/12/30 17:12:15;;;;;;;3.23;1.33;;;;;10.00;100421.00;;;;9824133;29;20248;-80
2023/12/30 17:17:17;;;;;;;3.33;1.30;;;;;10.00;100426.00;;;;9859459;29;20246;-81
2023/12/30 17:22:18;;;;;;;3.73;1.40;;;;;9.90;100409.00;;;;9841483;29;20224;-80
2023/12/30 17:27:19;;;;;;;3.20;1.30;;;;;9.70;100415.00;;;;9862713;29;20223;-81
2023/12/30 17:32:20;;;;;;;1.83;0.97;;;;;9.70;100406.00;;;;9850946;29;20354;-84
2023/12/30 17:37:22;;;;;;;6.47;1.30;;;;;9.70;100399.00;;;;9852275;29;20718;-84
2023/12/30 17:42:23;;;;;;;3.07;1.07;;;;;9.70;100391.00;;;;9854156;29;20240;-83
2023/12/30 17:47:25;;;;;;;3.93;1.57;;;;;9.70;100381.00;;;;9845119;29;20239;-84
2023/12/30 17:52:26;;;;;;;2.70;1.30;;;;;9.70;100388.00;;;;9864310;29;20295;-84
2023/12/30 17:57:27;;;;;;;6.03;1.50;;;;;9.70;100388.00;;;;9855587;29;20266;-83
2023/12/30 18:02:28;;;;;;;4.53;1.43;;;;;9.70;100377.00;;;;9833964;29;20576;-84
2023/12/30 18:07:30;;;;;;;3.10;1.47;;;;;9.60;100373.00;;;;9871048;29;20813;-84
2023/12/30 18:12:31;;;;;;;2.87;1.50;;;;;9.70;100375.00;;;;9862082;29;20236;-83
2023/12/30 18:17:32;;;;;;;4.07;1.40;;;;;9.80;100369.00;;;;9872437;29;20231;-84
2023/12/30 18:22:33;;;;;;;3.83;1.40;;;;;9.80;100359.00;;;;9871445;29;20239;-84
2023/12/30 18:27:35;;;;;;;7.47;1.53;;;;;9.90;100351.00;;;;9861528;29;20990;-85
2023/12/30 18:32:36;;;;;;;5.77;1.93;;;;;9.80;100333.00;;;;9849760;29;20235;-83
2023/12/30 18:37:37;;;;;;;3.30;1.70;;;;;9.60;100333.00;;;;9866906;29;20281;-84
2023/12/30 18:42:39;;;;;;;3.03;1.70;;;;;9.60;100317.00;;;;9870722;29;20239;-79
2023/12/30 18:47:40;;;;;;;2.60;1.83;;;;;9.60;100314.00;;;;9865721;29;20238;-79
2023/12/30 18:52:42;;;;;;;4.33;1.70;;;;;9.70;100324.00;;;;9864414;29;20863;-80
2023/12/30 18:57:43;;;;;;;3.60;1.63;;;;;9.50;100315.00;;;;9872532;29;20249;-81
2023/12/30 19:02:44;;;;;;;4.20;2.10;;;;;9.40;100305.00;;;;9870557;29;20235;-81
2023/12/30 19:07:45;;;;;;;3.97;2.27;;;;;9.30;100305.00;;;;9887305;29;20329;-82
2023/12/30 19:12:46;;;;;;;4.20;2.03;;;;;9.30;100291.00;;;;9868326;29;20227;-82
2023/12/30 19:17:48;;;;;;;2.73;2.07;;;;;9.20;100284.00;;;;9864988;29;20232;-82
2023/12/30 19:22:49;;;;;;;3.40;2.03;;;;;9.20;100294.00;;;;9860819;29;21135;-80
2023/12/30 19:27:51;;;;;;;4.23;1.93;;;;;9.30;100283.00;;;;9838096;29;20596;-80
2023/12/30 19:32:53;;;;;;;2.50;2.00;;;;;9.30;100274.00;;;;9868102;29;20235;-81
2023/12/30 19:37:55;;;;;;;3.50;2.10;;;;;9.30;100267.00;;;;9857766;29;20228;-81
2023/12/30 19:42:56;;;;;;;3.97;2.63;;;;;9.30;100260.00;;;;9846330;29;20243;-80
2023/12/30 19:47:58;;;;;;;3.47;2.10;;;;;9.40;100244.00;;;;9875733;29;20263;-79
2023/12/30 19:53:02;;;;;;;3.70;2.00;;;;;9.40;100224.00;;;;9877731;29;20321;-83
2023/12/30 19:58:03;;;;;;;2.77;2.10;;;;;9.40;100224.00;;;;9846860;29;20323;-82
2023/12/30 20:03:07;;;;;;;2.10;1.90;;;;;9.40;100208.00;;;;9860785;29;20887;-83
2023/12/30 20:08:08;;;;;;;5.70;2.50;;;;;9.40;100205.00;;;;9840061;29;20326;-83
2023/12/30 20:13:10;;;;;;;4.07;1.87;;;;;9.40;100202.00;;;;9876892;29;20863;-83
2023/12/30 20:18:11;;;;;;;2.83;2.03;;;;;9.40;100196.00;;;;9845148;29;20265;-83
2023/12/30 20:23:13;;;;;;;5.97;2.23;;;;;9.40;100191.00;;;;9872774;29;20235;-83
2023/12/30 20:28:14;;;;;;;4.47;2.07;;;;;9.40;100193.00;;;;9837037;29;20266;-83
2023/12/30 20:33:18;;;;;;;5.53;2.33;;;;;9.50;100192.00;;;;9858557;30;20258;-83
2023/12/30 20:38:20;;;;;;;4.60;2.53;;;;;9.50;100176.00;;;;9847069;30;20242;-84
2023/12/30 20:43:21;;;;;;;3.20;2.07;;;;;9.60;100176.00;;;;9871755;29;20807;-84
2023/12/30 20:48:22;;;;;;;3.13;2.40;;;;;9.50;100180.00;;;;9861408;29;20239;-84
2023/12/30 20:53:24;;;;;;;2.37;2.17;;;;;9.60;100174.00;;;;9847188;29;20690;-84
2023/12/30 20:58:25;;;;;;;1.90;1.40;;;;;9.60;100162.00;;;;9846856;29;20246;-85
2023/12/30 21:03:28;;;;;;;2.83;1.77;;;;;9.70;100148.00;;;;9841749;29;20223;-81
2023/12/30 21:08:30;;;;;;;6.53;2.90;;;;;9.70;100132.00;;;;9871053;29;20338;-80
2023/12/30 21:13:31;;;;;;;8.80;2.10;;;;;9.70;100118.00;;;;9856257;29;20314;-80
2023/12/30 21:18:33;;;;;;;5.23;1.70;;;;;9.70;100094.00;;;;9875104;29;20318;-80
2023/12/30 21:23:34;;;;;;;3.33;1.50;;;;;9.60;100065.00;;;;9849683;29;20860;-82
2023/12/30 21:28:36;;;;;;;3.37;1.97;;;;;9.50;100060.00;;;;9839588;29;20989;-82
2023/12/30 21:33:37;;;;;;;3.57;1.87;;;;;9.40;100040.00;;;;9877846;29;20239;-81
2023/12/30 21:38:39;;;;;;;3.97;2.33;;;;;9.40;100010.00;;;;9872957;29;20396;-81
2023/12/30 21:43:40;;;;;;;1.07;0.93;;;;;9.30;100005.00;;;;9834356;29;20752;-81
2023/12/30 21:48:41;;;;;;;5.97;1.27;;;;;9.20;100005.00;;;;9849607;29;20246;-80
2023/12/30 21:53:43;;;;;;;1.20;1.10;;;;;9.20;99993.00;;;;9857601;29;20231;-80
2023/12/30 21:58:45;;;;;;;3.70;1.43;;;;;9.20;99987.00;;;;9832193;29;20731;-81
2023/12/30 22:03:46;;;;;;;2.83;1.30;;;;;9.10;99985.00;;;;9854142;29;20265;-82
2023/12/30 22:08:47;;;;;;;2.40;1.47;;;;;9.10;99991.00;;;;9857256;29;20603;-81
2023/12/30 22:13:48;;;;;;;2.30;1.30;;;;;9.00;99983.00;;;;9858090;29;20918;-81
2023/12/30 22:18:50;;;;;;;4.07;1.10;;;;;9.00;100001.00;;;;9849696;29;20243;-81
2023/12/30 22:23:51;;;;;;;3.40;1.17;;;;;8.90;99999.00;;;;9851129;29;20692;-80
2023/12/30 22:28:52;;;;;;;3.67;1.80;;;;;8.90;99994.00;;;;9837091;29;20242;-81
2023/12/30 22:33:54;;;;;;;2.23;1.30;;;;;8.90;99976.00;;;;9848110;29;20322;-81
2023/12/30 22:38:55;;;;;;;2.93;1.30;;;;;8.90;99976.00;;;;9839594;29;20270;-80
2023/12/30 22:43:56;;;;;;;1.43;1.20;;;;;8.80;99973.00;;;;9852056;29;20232;-81
2023/12/30 22:48:58;;;;;;;0.97;0.87;;;;;8.80;99968.00;;;;9850565;29;20940;-81
2023/12/30 22:53:59;;;;;;;1.53;0.80;;;;;8.80;99956.00;;;;9867229;29;20239;-81
2023/12/30 22:59:00;;;;;;;3.30;1.07;;;;;8.80;99955.00;;;;9864247;29;20733;-81
2023/12/30 23:04:02;;;;;;;1.67;0.97;;;;;8.80;99951.00;;;;9853712;30;20238;-81
2023/12/30 23:09:03;;;;;;;2.77;1.20;;;;;8.90;99938.00;;;;9854154;29;20788;-80
2023/12/30 23:14:04;;;;;;;0.80;0.63;;;;;8.80;99914.00;;;;9848158;29;20608;-80
2023/12/30 23:19:06;;;;;;;1.00;0.60;;;;;8.80;99909.00;;;;9858962;29;21417;-78
2023/12/30 23:24:07;;;;;;;1.83;1.10;;;;;8.80;99891.00;;;;9872945;29;20235;-78
2023/12/30 23:29:09;;;;;;;3.13;1.20;;;;;8.80;99902.00;;;;9862780;29;20266;-80
2023/12/30 23:34:10;;;;;;;2.73;1.07;;;;;8.80;99889.00;;;;9843294;29;20236;-80
2023/12/30 23:39:12;;;;;;;1.50;1.00;;;;;8.70;99872.00;;;;9862651;29;20240;-78
2023/12/30 23:44:14;;;;;;;2.80;0.80;;;;;8.70;99864.00;;;;9859620;29;20345;-80
2023/12/30 23:49:15;;;;;;;3.23;1.10;;;;;8.80;99845.00;;;;9854611;29;20236;-80
2023/12/30 23:54:16;;;;;;;1.30;1.10;;;;;8.80;99825.00;;;;9842045;29;20289;-81
2023/12/30 23:59:19;;;;;;;1.70;1.10;;;;;8.70;99801.00;;;;9869283;29;20236;-80
